createdAt,value
2022-11-21T00:00:32.395Z,70.40
2022-11-21T00:03:04.840Z,67.38
2022-11-21T00:05:44.306Z,69.78
2022-11-21T00:08:12.849Z,69.78
2022-11-21T00:10:43.349Z,64.22
2022-11-21T00:13:18.987Z,64.43
2022-11-21T00:15:47.727Z,60.33
2022-11-21T00:18:22.676Z,62.92
2022-11-21T00:20:52.341Z,59.28
2022-11-21T00:23:19.470Z,63.65
2022-11-21T00:25:46.802Z,61.72
2022-11-21T00:28:13.945Z,61.08
2022-11-21T00:30:41.322Z,62.05
2022-11-21T00:33:10.852Z,61.33
2022-11-21T00:35:40.835Z,61.60
2022-11-21T00:38:10.259Z,59.60
2022-11-21T00:40:37.712Z,60.42
2022-11-21T00:43:07.127Z,60.53
2022-11-21T00:45:39.971Z,60.70
2022-11-21T00:48:10.810Z,60.80
2022-11-21T00:50:43.049Z,63.33
2022-11-21T00:53:12.539Z,59.88
2022-11-21T00:55:42.964Z,60.50
2022-11-21T00:58:12.585Z,64.00
2022-11-21T01:00:40.243Z,63.80
2022-11-21T01:03:07.613Z,66.93
2022-11-21T01:05:37.688Z,68.68
2022-11-21T01:08:04.988Z,66.30
2022-11-21T01:10:33.467Z,68.25
2022-11-21T01:13:03.319Z,64.80
2022-11-21T01:15:34.028Z,65.97
2022-11-21T01:18:03.846Z,66.10
2022-11-21T01:20:34.146Z,64.80
2022-11-21T01:23:03.923Z,63.28
2022-11-21T01:25:36.457Z,64.85
2022-11-21T01:28:07.202Z,62.92
2022-11-21T01:30:35.528Z,60.10
2022-11-21T01:33:03.520Z,64.00
2022-11-21T01:35:37.856Z,60.03
2022-11-21T01:38:07.066Z,57.85
2022-11-21T01:40:43.644Z,54.85
2022-11-21T01:43:15.693Z,57.72
2022-11-21T01:46:21.632Z,60.28
2022-11-21T01:49:13.933Z,57.72
2022-11-21T01:52:00.052Z,55.30
2022-11-21T01:54:35.758Z,53.65
2022-11-21T01:57:13.556Z,54.08
2022-11-21T01:59:54.559Z,57.17
2022-11-21T02:02:29.348Z,54.97
2022-11-21T02:05:03.228Z,54.53
2022-11-21T02:07:37.231Z,57.10
2022-11-21T02:10:09.295Z,52.78
2022-11-21T02:12:50.439Z,52.47
2022-11-21T02:15:29.065Z,52.17
2022-11-21T02:18:01.150Z,52.78
2022-11-21T02:20:29.643Z,53.72
2022-11-21T02:23:17.168Z,51.15
2022-11-21T02:25:44.421Z,51.10
2022-11-21T02:28:16.542Z,52.92
2022-11-21T02:30:44.088Z,50.83
2022-11-21T02:33:14.121Z,50.72
2022-11-21T02:35:41.760Z,53.78
2022-11-21T02:38:17.207Z,52.55
2022-11-21T02:41:15.715Z,49.30
2022-11-21T02:43:51.149Z,50.33
2022-11-21T02:46:18.407Z,48.05
2022-11-21T02:48:48.561Z,50.33
2022-11-21T02:51:15.627Z,49.70
2022-11-21T02:53:43.057Z,47.70
2022-11-21T02:56:10.521Z,47.38
2022-11-21T02:58:38.014Z,49.55
2022-11-21T03:01:10.153Z,48.17
2022-11-21T03:03:38.238Z,50.08
2022-11-21T03:06:07.865Z,45.72
2022-11-21T03:08:37.517Z,45.33
2022-11-21T03:11:07.001Z,47.95
2022-11-21T03:13:34.437Z,45.78
2022-11-21T03:16:01.481Z,47.30
2022-11-21T03:18:28.936Z,46.10
2022-11-21T03:20:59.976Z,47.65
2022-11-21T03:23:27.421Z,44.13
2022-11-21T03:25:56.609Z,47.35
2022-11-21T03:28:26.445Z,47.25
2022-11-21T03:30:55.791Z,47.45
2022-11-21T03:33:23.109Z,46.95
2022-11-21T03:35:52.711Z,49.40
2022-11-21T03:38:22.366Z,46.65
2022-11-21T03:40:49.457Z,49.15
2022-11-21T03:43:17.059Z,45.72
2022-11-21T03:45:48.024Z,45.53
2022-11-21T03:48:17.613Z,47.88
2022-11-21T03:50:45.028Z,45.15
2022-11-21T03:53:14.887Z,48.10
2022-11-21T03:55:44.124Z,47.92
2022-11-21T03:58:11.981Z,47.17
2022-11-21T04:00:41.623Z,46.55
2022-11-21T04:03:12.234Z,43.83
2022-11-21T04:05:39.411Z,44.33
2022-11-21T04:08:06.736Z,48.22
2022-11-21T04:10:36.057Z,45.05
2022-11-21T04:13:03.587Z,43.90
2022-11-21T04:15:32.846Z,42.65
2022-11-21T04:18:00.203Z,42.70
2022-11-21T04:20:29.479Z,43.25
2022-11-21T04:22:56.940Z,45.80
2022-11-21T04:25:26.494Z,44.08
2022-11-21T04:28:00.780Z,44.90
2022-11-21T04:30:28.295Z,42.08
2022-11-21T04:32:58.846Z,43.03
2022-11-21T04:35:26.931Z,43.63
2022-11-21T04:37:54.278Z,44.08
2022-11-21T04:40:21.415Z,43.17
2022-11-21T04:42:53.595Z,44.08
2022-11-21T04:45:25.816Z,42.33
2022-11-21T04:47:55.792Z,43.47
2022-11-21T04:50:25.620Z,43.70
2022-11-21T04:52:57.564Z,41.33
2022-11-21T04:55:29.946Z,41.25
2022-11-21T04:57:57.848Z,40.05
2022-11-21T05:00:25.174Z,45.40
2022-11-21T05:02:52.683Z,43.10
2022-11-21T05:05:21.925Z,42.97
2022-11-21T05:07:52.150Z,41.88
2022-11-21T05:10:21.752Z,43.88
2022-11-21T05:13:14.752Z,45.13
2022-11-21T05:18:10.095Z,42.00
2022-11-21T05:20:37.322Z,39.20
2022-11-21T05:23:04.893Z,38.08
2022-11-21T05:25:34.427Z,40.97
2022-11-21T05:28:01.944Z,39.45
2022-11-21T05:30:29.216Z,39.53
2022-11-21T05:33:01.232Z,40.15
2022-11-21T05:35:30.413Z,40.13
2022-11-21T05:37:58.808Z,39.00
2022-11-21T05:40:26.320Z,41.15
2022-11-21T05:43:12.293Z,39.55
2022-11-21T05:45:39.418Z,41.30
2022-11-21T05:48:09.800Z,41.85
2022-11-21T05:50:37.217Z,41.97
2022-11-21T05:53:05.244Z,39.63
2022-11-21T05:55:35.030Z,41.38
2022-11-21T05:58:02.454Z,40.88
2022-11-21T06:00:30.086Z,43.17
2022-11-21T06:03:16.641Z,40.85
2022-11-21T06:05:46.520Z,37.38
2022-11-21T06:08:13.963Z,39.03
2022-11-21T06:10:41.027Z,40.08
2022-11-21T06:13:22.092Z,39.25
2022-11-21T06:16:02.033Z,40.95
2022-11-21T06:18:33.069Z,38.90
2022-11-21T06:21:03.152Z,37.42
2022-11-21T06:23:31.161Z,39.40
2022-11-21T06:25:59.782Z,40.17
2022-11-21T06:28:30.362Z,38.85
2022-11-21T06:31:02.021Z,39.83
2022-11-21T06:33:29.600Z,40.50
2022-11-21T06:35:56.652Z,38.65
2022-11-21T06:38:24.269Z,38.50
2022-11-21T06:40:51.294Z,38.15
2022-11-21T06:43:18.632Z,38.33
2022-11-21T06:45:45.925Z,41.78
2022-11-21T06:48:13.281Z,43.38
2022-11-21T06:50:42.619Z,38.90
2022-11-21T06:53:12.243Z,39.40
2022-11-21T06:55:41.782Z,41.25
2022-11-21T06:58:14.318Z,38.47
2022-11-21T07:00:44.438Z,41.90
2022-11-21T07:03:11.805Z,41.47
2022-11-21T07:05:39.024Z,39.97
2022-11-21T07:08:13.101Z,41.75
2022-11-21T07:10:57.228Z,42.50
2022-11-21T07:13:29.557Z,38.63
2022-11-21T07:16:02.084Z,37.80
2022-11-21T07:18:29.879Z,39.00
2022-11-21T07:21:01.677Z,40.53
2022-11-21T07:23:30.000Z,39.83
2022-11-21T07:26:04.437Z,39.92
2022-11-21T07:28:32.668Z,43.90
2022-11-21T07:31:01.283Z,39.60
2022-11-21T07:33:28.995Z,39.72
2022-11-21T07:36:02.186Z,55.00
2022-11-21T07:38:32.105Z,62.63
2022-11-21T07:41:01.471Z,57.95
2022-11-21T07:43:31.222Z,50.00
2022-11-21T07:46:03.086Z,61.13
2022-11-21T07:48:30.502Z,50.85
2022-11-21T07:51:02.606Z,37.20
2022-11-21T07:53:32.587Z,55.78
2022-11-21T07:56:03.018Z,37.95
2022-11-21T07:58:30.764Z,38.17
2022-11-21T08:00:58.586Z,39.22
2022-11-21T08:03:26.079Z,40.10
2022-11-21T08:05:53.249Z,37.95
2022-11-21T08:08:20.643Z,37.08
2022-11-21T08:10:48.310Z,36.35
2022-11-21T08:13:15.723Z,38.40
2022-11-21T08:15:42.839Z,38.10
2022-11-21T08:18:14.302Z,36.83
2022-11-21T08:20:42.067Z,38.42
2022-11-21T08:23:11.997Z,40.38
2022-11-21T08:25:43.129Z,37.45
2022-11-21T08:28:11.979Z,41.17
2022-11-21T08:30:41.329Z,40.95
2022-11-21T08:33:14.067Z,39.55
2022-11-21T08:35:43.733Z,39.58
2022-11-21T08:38:11.144Z,38.28
2022-11-21T08:40:38.330Z,38.15
2022-11-21T08:43:08.079Z,40.42
2022-11-21T08:45:39.271Z,38.30
2022-11-21T08:48:12.956Z,40.13
2022-11-21T08:50:44.374Z,40.28
2022-11-21T08:53:11.751Z,39.15
2022-11-21T08:55:40.846Z,39.03
2022-11-21T08:58:10.532Z,38.58
2022-11-21T09:00:37.906Z,37.83
2022-11-21T09:03:05.700Z,39.85
2022-11-21T09:05:34.280Z,41.45
2022-11-21T09:08:04.115Z,38.47
2022-11-21T09:13:03.816Z,40.92
2022-11-21T09:15:52.332Z,39.88
2022-11-21T09:18:22.005Z,42.25
2022-11-21T09:23:21.959Z,38.55
2022-11-21T09:25:49.105Z,41.17
2022-11-21T09:28:18.776Z,41.90
2022-11-21T09:30:50.447Z,41.75
2022-11-21T09:33:17.988Z,44.45
2022-11-21T09:35:45.037Z,45.45
2022-11-21T09:38:12.531Z,41.83
2022-11-21T09:40:45.870Z,42.45
2022-11-21T09:43:31.317Z,45.25
2022-11-21T09:46:17.646Z,44.38
2022-11-21T09:49:04.573Z,43.85
2022-11-21T09:51:32.217Z,44.97
2022-11-21T09:54:12.388Z,45.10
2022-11-21T09:56:42.570Z,44.00
2022-11-21T09:59:21.870Z,43.38
2022-11-21T10:01:51.325Z,42.83
2022-11-21T10:04:21.893Z,45.25
2022-11-21T10:07:00.375Z,42.45
2022-11-21T10:10:17.368Z,43.80
2022-11-21T10:12:56.942Z,44.85
2022-11-21T10:15:51.480Z,44.97
2022-11-21T10:18:49.642Z,47.05
2022-11-21T10:21:39.266Z,46.15
2022-11-21T10:24:29.702Z,45.10
2022-11-21T10:27:07.812Z,50.55
2022-11-21T10:29:55.008Z,49.17
2022-11-21T10:32:30.150Z,47.92
2022-11-21T10:35:05.408Z,45.55
2022-11-21T10:37:39.081Z,46.60
2022-11-21T10:40:37.883Z,45.70
2022-11-21T10:43:41.422Z,46.90
2022-11-21T10:46:09.549Z,46.90
2022-11-21T10:48:39.513Z,47.78
2022-11-21T10:51:27.780Z,49.70
2022-11-21T10:54:30.881Z,47.65
2022-11-21T10:57:18.542Z,50.95
2022-11-21T11:00:19.969Z,50.05
2022-11-21T11:02:56.005Z,49.55
2022-11-21T11:05:28.856Z,46.28
2022-11-21T11:08:02.322Z,49.70
2022-11-21T11:10:30.899Z,49.47
2022-11-21T11:13:44.730Z,49.92
2022-11-21T11:16:10.637Z,51.80
2022-11-21T11:18:47.035Z,51.58
2022-11-21T11:21:20.634Z,52.83
2022-11-21T11:23:52.207Z,53.10
2022-11-21T11:26:32.953Z,51.60
2022-11-21T11:29:21.449Z,53.88
2022-11-21T11:32:20.839Z,53.38
2022-11-21T11:34:58.008Z,49.60
2022-11-21T11:37:41.688Z,51.05
2022-11-21T11:40:31.470Z,53.58
2022-11-21T11:43:32.314Z,54.08
2022-11-21T11:46:33.191Z,52.38
2022-11-21T11:49:53.647Z,53.95
2022-11-21T11:52:30.073Z,53.80
2022-11-21T11:55:04.128Z,51.63
2022-11-21T11:57:32.819Z,54.40
2022-11-21T12:00:15.474Z,54.83
2022-11-21T12:02:57.911Z,56.60
2022-11-21T12:05:30.341Z,55.67
2022-11-21T12:11:53.461Z,55.75
2022-11-21T12:14:57.352Z,58.67
2022-11-21T12:17:47.058Z,56.42
2022-11-21T12:20:32.953Z,56.10
2022-11-21T12:23:07.290Z,55.78
2022-11-21T12:25:41.010Z,64.28
2022-11-21T12:28:34.462Z,65.50
2022-11-21T12:31:35.834Z,65.05
2022-11-21T12:34:23.517Z,54.08
2022-11-21T12:37:19.310Z,55.50
2022-11-21T12:40:25.611Z,64.03
2022-11-21T12:43:26.561Z,58.67
2022-11-21T12:46:14.465Z,53.42
2022-11-21T12:49:33.354Z,52.55
2022-11-21T12:52:31.857Z,50.70
2022-11-21T12:55:08.317Z,52.20
2022-11-21T12:57:54.288Z,53.03
2022-11-21T13:00:42.961Z,52.88
2022-11-21T13:03:28.871Z,53.33
2022-11-21T13:06:04.430Z,54.35
2022-11-21T13:08:36.664Z,57.17
2022-11-21T13:11:41.065Z,60.95
2022-11-21T13:14:30.311Z,55.58
2022-11-21T13:17:12.496Z,57.28
2022-11-21T13:19:55.237Z,56.53
2022-11-21T13:22:37.017Z,55.55
2022-11-21T13:25:39.281Z,50.85
2022-11-21T13:28:17.934Z,56.83
2022-11-21T13:30:55.658Z,54.10
2022-11-21T13:33:37.362Z,53.80
2022-11-21T13:36:09.069Z,56.15
2022-11-21T13:38:51.802Z,56.60
2022-11-21T13:41:52.955Z,56.55
2022-11-21T13:44:34.771Z,56.22
2022-11-21T13:47:31.406Z,57.95
2022-11-21T13:50:03.916Z,57.50
2022-11-21T13:52:50.181Z,61.15
2022-11-21T13:55:41.418Z,60.03
2022-11-21T13:58:33.789Z,56.92
2022-11-21T14:01:36.193Z,57.27
2022-11-21T14:04:21.233Z,55.55
2022-11-21T14:09:22.923Z,59.30
2022-11-21T14:11:51.615Z,60.03
2022-11-21T14:14:34.114Z,60.30
2022-11-21T14:17:24.721Z,59.60
2022-11-21T14:19:57.168Z,54.85
2022-11-21T14:22:40.988Z,55.05
2022-11-21T14:25:23.099Z,58.05
2022-11-21T14:27:55.596Z,59.33
2022-11-21T14:30:33.149Z,57.90
2022-11-21T14:33:41.849Z,57.97
2022-11-21T14:36:16.499Z,59.17
2022-11-21T14:39:21.044Z,59.13
2022-11-21T14:41:49.828Z,70.55
2022-11-21T14:44:19.099Z,83.13
2022-11-21T14:46:48.304Z,148.43
2022-11-21T14:49:17.837Z,109.15
2022-11-21T14:51:59.948Z,108.50
2022-11-21T14:54:32.333Z,76.13
2022-11-21T14:57:08.008Z,114.03
2022-11-21T14:59:43.041Z,73.60
2022-11-21T15:02:17.824Z,69.78
2022-11-21T15:04:50.454Z,73.18
2022-11-21T15:12:49.439Z,86.55
2022-11-21T15:15:32.073Z,88.30
2022-11-21T15:20:54.862Z,70.38
2022-11-21T15:23:29.571Z,66.63
2022-11-21T15:26:00.876Z,65.60
2022-11-21T15:28:31.821Z,67.05
2022-11-21T15:31:21.291Z,74.43
2022-11-21T15:37:19.648Z,69.45
2022-11-21T15:39:49.938Z,69.55
2022-11-21T15:42:36.934Z,71.25
2022-11-21T15:45:23.144Z,70.63
2022-11-21T15:47:56.719Z,69.75
2022-11-21T15:50:28.608Z,69.63
2022-11-21T15:52:56.327Z,68.63
2022-11-21T15:55:31.543Z,68.68
2022-11-21T15:57:13.219Z,67.45
2022-11-21T15:58:01.496Z,69.13
2022-11-21T16:00:30.951Z,67.15
2022-11-21T16:03:00.571Z,70.72
2022-11-21T16:05:30.237Z,69.82
2022-11-21T16:07:57.356Z,74.30
2022-11-21T16:10:27.923Z,69.53
2022-11-21T16:12:55.969Z,73.03
2022-11-21T16:15:24.441Z,74.65
2022-11-21T16:17:52.407Z,75.82
2022-11-21T16:20:21.883Z,79.28
2022-11-21T16:22:51.348Z,87.43
2022-11-21T16:25:19.161Z,78.18
2022-11-21T16:27:48.729Z,93.93
2022-11-21T16:30:28.134Z,89.68
2022-11-21T16:33:02.308Z,90.60
2022-11-21T16:35:29.687Z,100.70
2022-11-21T16:38:02.645Z,95.13
2022-11-21T16:40:30.075Z,94.53
2022-11-21T16:43:14.506Z,91.82
2022-11-21T16:45:44.551Z,91.78
2022-11-21T16:48:15.046Z,86.88
2022-11-21T16:50:42.464Z,83.25
2022-11-21T16:53:14.882Z,83.45
2022-11-21T16:55:43.028Z,83.05
2022-11-21T16:58:18.544Z,80.22
2022-11-21T17:00:48.766Z,80.65
2022-11-21T17:03:16.031Z,80.40
2022-11-21T17:05:43.674Z,75.93
2022-11-21T17:08:16.203Z,79.97
2022-11-21T17:10:45.898Z,76.15
2022-11-21T17:13:16.060Z,77.07
2022-11-21T17:15:43.820Z,80.32
2022-11-21T17:18:11.311Z,78.30
2022-11-21T17:20:39.334Z,73.20
2022-11-21T17:23:09.556Z,75.43
2022-11-21T17:25:36.937Z,82.70
2022-11-21T17:28:14.224Z,70.45
2022-11-21T17:30:44.193Z,72.10
2022-11-21T17:33:14.256Z,66.97
2022-11-21T17:35:51.366Z,65.85
2022-11-21T17:38:18.926Z,67.03
2022-11-21T17:40:59.717Z,65.32
2022-11-21T17:43:27.845Z,71.55
2022-11-21T17:46:09.096Z,70.15
2022-11-21T17:48:37.776Z,70.55
2022-11-21T17:51:09.338Z,74.78
2022-11-21T17:53:42.285Z,72.35
2022-11-21T17:56:20.928Z,71.43
2022-11-21T17:58:52.184Z,72.63
2022-11-21T18:01:22.684Z,73.95
2022-11-21T18:03:59.394Z,71.22
2022-11-21T18:06:29.165Z,71.57
2022-11-21T18:08:59.151Z,78.88
2022-11-21T18:11:39.236Z,76.15
2022-11-21T18:14:09.330Z,75.93
2022-11-21T18:16:39.043Z,75.55
2022-11-21T18:19:06.652Z,82.55
2022-11-21T18:21:36.506Z,83.10
2022-11-21T18:24:09.744Z,89.32
2022-11-21T18:26:51.844Z,73.60
2022-11-21T18:29:36.145Z,79.90
2022-11-21T18:32:05.076Z,87.68
2022-11-21T18:34:32.478Z,84.75
2022-11-21T18:37:02.248Z,79.85
2022-11-21T18:39:32.027Z,81.00
2022-11-21T18:41:59.728Z,72.88
2022-11-21T18:44:27.759Z,72.68
2022-11-21T18:46:55.557Z,73.40
2022-11-21T18:49:28.349Z,68.85
2022-11-21T18:51:56.349Z,70.70
2022-11-21T18:54:35.745Z,68.63
2022-11-21T18:57:03.832Z,64.43
2022-11-21T18:59:33.123Z,61.72
2022-11-21T19:02:04.979Z,73.78
2022-11-21T19:04:32.235Z,66.05
2022-11-21T19:07:02.860Z,68.15
2022-11-21T19:09:53.654Z,64.05
2022-11-21T19:12:23.804Z,68.43
2022-11-21T19:14:52.032Z,67.18
2022-11-21T19:17:21.681Z,67.68
2022-11-21T19:19:51.373Z,71.03
2022-11-21T19:22:21.521Z,68.88
2022-11-21T19:24:48.629Z,72.43
2022-11-21T19:27:24.214Z,65.53
2022-11-21T19:29:55.574Z,67.22
2022-11-21T19:32:25.207Z,62.95
2022-11-21T19:34:52.881Z,57.33
2022-11-21T19:37:20.379Z,56.55
2022-11-21T19:39:52.363Z,61.65
2022-11-21T19:42:20.182Z,61.65
2022-11-21T19:44:47.398Z,56.28
2022-11-21T19:47:14.905Z,57.35
2022-11-21T19:49:42.131Z,59.47
2022-11-21T19:52:10.016Z,55.05
2022-11-21T19:54:39.582Z,56.30
2022-11-21T19:57:12.394Z,54.85
2022-11-21T19:59:45.306Z,56.22
2022-11-21T20:02:19.555Z,58.25
2022-11-21T20:04:49.394Z,61.33
2022-11-21T20:07:21.476Z,61.15
2022-11-21T20:09:51.820Z,60.83
2022-11-21T20:12:21.919Z,59.58
2022-11-21T20:14:49.024Z,63.88
2022-11-21T20:17:23.728Z,60.63
2022-11-21T20:19:52.333Z,62.50
2022-11-21T20:22:20.096Z,63.05
2022-11-21T20:24:51.891Z,64.47
2022-11-21T20:27:25.548Z,62.85
2022-11-21T20:29:58.304Z,63.85
2022-11-21T20:32:29.433Z,63.85
2022-11-21T20:35:01.587Z,63.92
2022-11-21T20:37:36.570Z,62.13
2022-11-21T20:40:06.782Z,59.70
2022-11-21T20:42:37.388Z,61.75
2022-11-21T20:46:06.435Z,61.28
2022-11-21T20:47:57.078Z,58.45
2022-11-21T20:51:03.505Z,60.13
2022-11-21T20:53:50.708Z,56.47
2022-11-21T20:56:08.739Z,55.38
2022-11-21T20:58:38.425Z,57.40
2022-11-21T21:01:19.103Z,59.20
2022-11-21T21:03:46.966Z,53.65
2022-11-21T21:06:15.525Z,59.85
2022-11-21T21:08:43.290Z,57.33
2022-11-21T21:11:36.761Z,57.47
2022-11-21T21:14:02.684Z,57.75
2022-11-21T21:16:39.099Z,58.70
2022-11-21T21:19:12.695Z,58.35
2022-11-21T21:21:41.594Z,59.28
2022-11-21T21:24:11.453Z,57.22
2022-11-21T21:26:46.638Z,61.50
2022-11-21T21:29:24.705Z,58.47
2022-11-21T21:31:54.136Z,55.72
2022-11-21T21:34:38.955Z,56.67
2022-11-21T21:37:06.422Z,60.83
2022-11-21T21:39:37.166Z,59.22
2022-11-21T21:42:09.677Z,57.17
2022-11-21T21:44:39.266Z,60.38
2022-11-21T21:47:16.122Z,61.58
2022-11-21T21:49:44.321Z,61.35
2022-11-21T21:52:11.428Z,64.57
2022-11-21T21:54:41.154Z,60.92
2022-11-21T21:57:08.561Z,62.33
2022-11-21T21:59:36.468Z,60.17
2022-11-21T22:02:06.042Z,56.22
2022-11-21T22:04:34.095Z,56.78
2022-11-21T22:07:05.485Z,59.92
2022-11-21T22:09:32.919Z,57.15
2022-11-21T22:12:00.225Z,61.03
2022-11-21T22:14:28.064Z,58.75
2022-11-21T22:16:55.361Z,62.28
2022-11-21T22:19:23.624Z,56.67
2022-11-21T22:21:52.853Z,60.35
2022-11-21T22:24:25.772Z,57.70
2022-11-21T22:26:53.521Z,60.35
2022-11-21T22:29:23.843Z,61.60
2022-11-21T22:31:51.551Z,61.22
2022-11-21T22:34:21.950Z,61.72
2022-11-21T22:36:51.687Z,63.17
2022-11-21T22:39:19.228Z,63.65
2022-11-21T22:41:46.471Z,58.85
2022-11-21T22:44:13.916Z,62.70
2022-11-21T22:46:41.181Z,62.90
2022-11-21T22:49:10.845Z,61.20
2022-11-21T22:51:38.052Z,61.17
2022-11-21T22:54:05.555Z,62.20
2022-11-21T22:56:33.435Z,59.25
2022-11-21T22:59:03.225Z,57.13
2022-11-21T23:01:33.290Z,59.75
2022-11-21T23:04:00.815Z,60.03
2022-11-21T23:06:28.315Z,58.65
2022-11-21T23:08:56.893Z,53.40
2022-11-21T23:11:29.495Z,58.40
2022-11-21T23:13:57.854Z,61.03
2022-11-21T23:16:29.730Z,61.25
2022-11-21T23:19:02.098Z,57.53
2022-11-21T23:21:30.432Z,59.22
2022-11-21T23:23:57.990Z,54.88
2022-11-21T23:26:27.565Z,57.55
2022-11-21T23:28:57.752Z,47.15
2022-11-21T23:31:29.639Z,49.10
2022-11-21T23:33:57.676Z,49.75
2022-11-21T23:36:27.340Z,48.88
2022-11-21T23:38:57.676Z,49.13
2022-11-21T23:41:28.173Z,56.13
2022-11-21T23:44:04.497Z,59.78
2022-11-21T23:46:31.840Z,51.55
2022-11-21T23:49:01.974Z,49.88
2022-11-21T23:51:32.117Z,49.47
2022-11-21T23:53:59.714Z,53.03
2022-11-21T23:56:28.985Z,52.83
